Time;durP1;ratioP1;P1;durP2;ratioP2;P2;SDS_P1;SDS_P2;PMS_P1;PMS_P2;Temp;Humidity;BMP_temperature;BMP_pressure;BME280_temperature;BME280_humidity;BME280_pressure;Samples;Min_cycle;Max_cycle;Signal;HPM_P1;HPM_P2
2023/12/13 05:23:44;;;;;;;5.45;1.33;;;6.90;99.90;;;;;;7589499;19;20895;-75
2023/12/13 05:26:17;;;;;;;5.82;1.52;;;6.80;99.90;;;;;;7606289;19;20089;-75
2023/12/13 05:28:49;;;;;;;3.40;1.55;;;6.80;99.90;;;;;;7600397;19;20022;-74
2023/12/13 05:31:23;;;;;;;5.28;1.58;;;;;;;;;;7602627;19;20010;-75
2023/12/13 05:33:55;;;;;;;;;;;;;;;;;;7590951;19;20021;-75
2023/12/13 05:36:29;;;;;;;2.75;2.20;;;;;;;;;;7603681;19;19922;-74
2023/12/13 05:39:02;;;;;;;6.15;2.20;;;;;;;;;;7594712;19;21094;-74
2023/12/13 05:41:35;;;;;;;7.68;1.67;;;;;;;;;;7589936;19;20010;-75
2023/12/13 05:44:08;;;;;;;4.43;1.30;;;;;;;;;;7593365;19;20053;-75
2023/12/13 05:46:40;;;;;;;1.83;1.58;;;;;;;;;;7593409;19;25536;-75
2023/12/13 05:49:13;;;;;;;7.07;2.13;;;;;;;;;;7606446;19;20040;-75
2023/12/13 05:51:46;;;;;;;1.60;1.40;;;;;;;;;;7587804;19;20037;-74
2023/12/13 05:54:19;;;;;;;7.03;1.45;;;;;;;;;;7600860;19;20484;-74
2023/12/13 05:56:53;;;;;;;4.38;1.10;;;;;;;;;;7585021;19;20022;-75
2023/12/13 05:59:25;;;;;;;2.25;1.10;;;;;;;;;;7593432;19;20033;-74
2023/12/13 06:01:58;;;;;;;1.53;0.97;;;;;;;;;;7620855;19;20803;-75
2023/12/13 06:04:31;;;;;;;5.60;1.25;;;;;;;;;;7583455;19;20938;-75
2023/12/13 06:07:04;;;;;;;5.13;1.40;;;;;;;;;;7607593;19;20033;-75
2023/12/13 06:09:37;;;;;;;2.25;1.33;;;;;;;;;;7579216;19;20029;-74
2023/12/13 06:12:13;;;;;;;2.70;1.67;;;;;;;;;;7593652;19;20438;-74
2023/12/13 06:14:46;;;;;;;2.58;1.20;;;;;;;;;;7567213;19;20033;-74
2023/12/13 06:17:18;;;;;;;3.90;1.40;;;;;;;;;;7583432;19;21276;-74
2023/12/13 06:19:50;;;;;;;2.07;1.50;;;6.80;99.90;;;;;;7592270;19;20082;-73
2023/12/13 06:22:23;;;;;;;4.68;2.13;;;;;;;;;;7596993;19;20383;-75
2023/12/13 06:24:56;;;;;;;3.60;2.25;;;;;;;;;;7573039;19;20046;-74
2023/12/13 06:27:29;;;;;;;4.57;2.60;;;;;;;;;;7567343;19;20018;-73
2023/12/13 06:30:02;;;;;;;8.57;4.53;;;;;;;;;;7562959;19;20811;-75
2023/12/13 06:32:36;;;;;;;3.80;2.28;;;;;;;;;;7566932;19;20018;-74
2023/12/13 06:35:09;;;;;;;3.92;2.40;;;;;;;;;;7576614;19;20553;-74
2023/12/13 06:37:42;;;;;;;5.00;2.63;;;;;;;;;;7567207;19;20502;-73
2023/12/13 06:40:15;;;;;;;5.40;2.20;;;;;;;;;;7599482;19;20022;-73
2023/12/13 06:42:48;;;;;;;4.13;2.60;;;;;;;;;;7588011;19;20098;-74
2023/12/13 06:45:21;;;;;;;4.05;2.30;;;;;;;;;;7586066;19;20790;-74
2023/12/13 06:47:53;;;;;;;2.60;1.75;;;;;;;;;;7570498;19;20014;-76
2023/12/13 06:50:26;;;;;;;3.78;2.35;;;;;;;;;;7581680;19;20018;-75
2023/12/13 06:53:00;;;;;;;7.15;4.88;;;;;;;;;;7575749;19;20018;-73
2023/12/13 06:55:33;;;;;;;7.43;5.93;;;;;;;;;;7572605;19;20056;-73
2023/12/13 06:58:06;;;;;;;6.63;5.20;;;;;;;;;;7593112;19;20018;-73
2023/12/13 07:00:38;;;;;;;3.92;3.35;;;;;;;;;;7554897;19;21305;-73
2023/12/13 07:03:11;;;;;;;4.27;2.90;;;;;;;;;;7575305;19;20059;-73
2023/12/13 07:05:45;;;;;;;3.42;2.42;;;;;;;;;;7579213;19;20011;-73
2023/12/13 07:08:18;;;;;;;5.63;3.40;;;;;;;;;;7590547;19;20491;-73
2023/12/13 07:10:51;;;;;;;4.83;3.00;;;;;;;;;;7585877;19;20667;-75
2023/12/13 07:13:24;;;;;;;6.65;2.92;;;;;;;;;;7590893;19;21007;-73
2023/12/13 07:15:57;;;;;;;4.88;2.95;;;;;;;;;;7573010;19;20693;-73
2023/12/13 07:18:30;;;;;;;3.60;2.78;;;;;;;;;;7578245;19;20482;-73
2023/12/13 07:21:03;;;;;;;3.75;2.00;;;7.10;99.90;;;;;;7586941;19;20024;-73
2023/12/13 07:23:36;;;;;;;4.70;2.30;;;6.70;99.90;;;;;;7575880;19;20006;-73
2023/12/13 07:26:08;;;;;;;2.90;1.83;;;6.60;99.90;;;;;;7583109;19;20010;-74
2023/12/13 07:28:41;;;;;;;4.22;2.28;;;6.60;99.90;;;;;;7582225;19;20283;-74
2023/12/13 07:31:14;;;;;;;3.17;2.05;;;6.60;99.90;;;;;;7580343;19;20010;-74
2023/12/13 07:33:46;;;;;;;3.13;2.03;;;6.50;99.90;;;;;;7584140;19;20018;-75
2023/12/13 07:36:19;;;;;;;4.97;2.47;;;6.50;99.90;;;;;;7589874;19;20026;-74
2023/12/13 07:38:51;;;;;;;4.53;2.80;;;6.50;99.90;;;;;;7580743;19;20010;-74
2023/12/13 07:41:25;;;;;;;2.55;1.75;;;6.50;99.90;;;;;;7578264;19;20014;-74
2023/12/13 07:43:57;;;;;;;6.53;3.20;;;;;;;;;;7585808;19;20026;-75
2023/12/13 07:46:30;;;;;;;4.87;2.80;;;;;;;;;;7565433;19;20030;-75
2023/12/13 07:49:03;;;;;;;6.97;2.78;;;;;;;;;;7577640;19;20481;-74
2023/12/13 07:51:36;;;;;;;27.73;4.80;;;6.40;99.90;;;;;;7578918;19;20014;-74
2023/12/13 07:54:11;;;;;;;12.40;3.20;;;6.50;99.90;;;;;;7581748;19;20048;-75
2023/12/13 07:56:45;;;;;;;13.07;2.67;;;6.50;99.90;;;;;;7587672;19;20022;-74
2023/12/13 07:59:19;;;;;;;35.78;4.97;;;6.50;99.90;;;;;;7592378;19;20022;-74
2023/12/13 08:01:51;;;;;;;11.00;3.83;;;6.50;99.90;;;;;;7578076;19;20117;-74
2023/12/13 08:04:23;;;;;;;27.73;5.32;;;6.40;99.90;;;;;;7579120;19;20022;-73
2023/12/13 08:06:55;;;;;;;12.82;3.78;;;6.40;99.90;;;;;;7569652;19;20266;-76
2023/12/13 08:09:28;;;;;;;7.78;3.33;;;6.40;99.90;;;;;;7594167;19;20026;-75
2023/12/13 08:12:00;;;;;;;14.43;3.80;;;6.50;99.90;;;;;;7586263;19;20023;-75
2023/12/13 08:14:33;;;;;;;7.65;3.42;;;6.60;99.90;;;;;;7587879;19;20029;-74
2023/12/13 08:17:08;;;;;;;9.65;3.63;;;;;;;;;;7579136;19;20010;-75
2023/12/13 08:19:42;;;;;;;8.90;4.03;;;;;;;;;;7581744;19;20022;-74
2023/12/13 08:22:15;;;;;;;6.65;2.97;;;;;;;;;;7585730;19;20055;-75
2023/12/13 08:24:48;;;;;;;7.03;3.07;;;;;;;;;;7595940;19;20026;-75
2023/12/13 08:27:21;;;;;;;9.07;2.80;;;;;;;;;;7587069;19;20282;-74
2023/12/13 08:29:54;;;;;;;4.10;2.90;;;;;;;;;;7573579;19;20022;-75
2023/12/13 08:32:27;;;;;;;5.80;3.58;;;;;;;;;;7582810;19;20393;-75
2023/12/13 08:35:01;;;;;;;10.27;4.75;;;;;;;;;;7576735;19;20014;-76
2023/12/13 08:37:33;;;;;;;14.52;6.22;;;6.70;99.90;;;;;;7591434;19;20019;-75
2023/12/13 08:40:06;;;;;;;21.17;6.93;;;6.70;99.90;;;;;;7579945;19;20018;-75
2023/12/13 08:42:39;;;;;;;16.73;6.40;;;6.70;99.90;;;;;;7589044;19;20271;-76
2023/12/13 08:45:16;;;;;;;15.93;5.60;;;6.80;99.90;;;;;;7595920;19;20018;-75
2023/12/13 08:47:49;;;;;;;7.88;4.30;;;6.80;99.90;;;;;;7580105;19;20018;-73
2023/12/13 08:50:21;;;;;;;8.45;4.25;;;6.80;99.90;;;;;;7591121;19;20027;-73
2023/12/13 08:52:54;;;;;;;9.23;3.65;;;6.80;99.90;;;;;;7587265;19;20022;-75
2023/12/13 08:55:26;;;;;;;5.47;3.40;;;6.90;99.90;;;;;;7586190;19;20018;-75
2023/12/13 08:58:00;;;;;;;8.20;2.72;;;6.90;99.90;;;;;;7577763;19;20048;-75
2023/12/13 09:00:33;;;;;;;12.73;3.55;;;;;;;;;;7573506;19;20058;-75
2023/12/13 09:03:06;;;;;;;8.68;3.20;;;;;;;;;;7576667;19;20030;-75
2023/12/13 09:05:38;;;;;;;4.67;2.37;;;;;;;;;;7583591;19;20025;-75
2023/12/13 09:08:11;;;;;;;5.53;2.75;;;;;;;;;;7586417;19;20022;-76
2023/12/13 09:10:44;;;;;;;20.70;4.30;;;;;;;;;;7589121;19;20018;-74
2023/12/13 09:13:17;;;;;;;9.90;3.28;;;;;;;;;;7595822;19;20626;-74
2023/12/13 09:15:49;;;;;;;4.47;2.77;;;;;;;;;;7577703;19;20022;-74
2023/12/13 09:18:22;;;;;;;13.47;3.33;;;;;;;;;;7584807;19;20409;-75
2023/12/13 09:20:55;;;;;;;8.05;2.10;;;;;;;;;;7580912;19;20014;-75
2023/12/13 09:23:29;;;;;;;4.30;2.70;;;;;;;;;;7586223;19;20484;-75
2023/12/13 09:26:04;;;;;;;6.22;2.28;;;;;;;;;;7570955;19;20022;-75
2023/12/13 09:28:37;;;;;;;5.70;2.20;;;;;;;;;;7576532;19;20086;-74
2023/12/13 09:31:11;;;;;;;3.47;2.40;;;;;;;;;;7580237;19;20019;-75
2023/12/13 09:33:45;;;;;;;4.88;2.58;;;;;;;;;;7583120;19;20018;-75
2023/12/13 09:36:18;;;;;;;5.87;3.33;;;;;;;;;;7579241;19;20121;-75
2023/12/13 09:38:50;;;;;;;6.43;3.70;;;;;;;;;;7549300;19;20723;-75
2023/12/13 09:41:31;;;;;;;6.13;3.22;;;;;;;;;;7575426;19;20052;-74
2023/12/13 09:44:04;;;;;;;8.95;3.67;;;;;;;;;;7570818;19;21135;-75
2023/12/13 09:46:37;;;;;;;5.87;3.07;;;;;;;;;;7592099;19;20019;-73
2023/12/13 09:49:10;;;;;;;8.35;2.97;;;;;;;;;;7587965;19;20014;-74
2023/12/13 14:42:48;;;;;;;16.67;8.07;;;7.30;99.90;;;;;;7643748;19;20379;-75
2023/12/13 14:45:21;;;;;;;10.40;6.53;;;7.30;99.90;;;;;;7649577;19;20016;-75
2023/12/13 14:47:54;;;;;;;9.90;5.38;;;;;;;;;;7642113;19;20038;-75
2023/12/13 14:50:28;;;;;;;8.48;4.93;;;;;;;;;;7641711;19;20774;-75
2023/12/13 14:53:01;;;;;;;11.68;5.43;;;;;;;;;;7632050;19;20072;-75
2023/12/13 14:55:34;;;;;;;12.70;5.75;;;;;;;;;;7650591;19;20054;-75
2023/12/13 14:58:07;;;;;;;10.27;5.68;;;;;;;;;;7661618;19;20022;-75
2023/12/13 15:00:39;;;;;;;14.38;9.82;;;;;;;;;;7654641;19;20003;-75
2023/12/13 15:03:12;;;;;;;15.75;12.10;;;;;;;;;;7664272;19;20082;-75
2023/12/13 15:05:45;;;;;;;14.93;8.25;;;;;;;;;;7652846;19;20025;-75
2023/12/13 15:08:22;;;;;;;16.17;6.97;;;;;;;;;;7632412;19;20042;-75
2023/12/13 15:10:55;;;;;;;9.95;6.40;;;;;;;;;;7605262;19;20089;-75
2023/12/13 15:13:28;;;;;;;16.42;5.80;;;;;;;;;;7599747;19;26049;-74
2023/12/13 15:16:02;;;;;;;12.13;5.90;;;;;;;;;;7641106;19;20028;-75
2023/12/13 15:18:34;;;;;;;11.82;5.18;;;;;;;;;;7647764;19;20027;-75
2023/12/13 15:21:07;;;;;;;12.80;5.93;;;;;;;;;;7640406;19;20637;-74
2023/12/13 15:23:41;;;;;;;10.13;5.53;;;;;;;;;;7627918;19;20467;-77
2023/12/13 15:26:15;;;;;;;13.90;3.95;;;;;;;;;;7645514;19;20341;-75
2023/12/13 15:28:49;;;;;;;10.73;4.20;;;;;;;;;;7645368;19;20022;-74
2023/12/13 15:31:22;;;;;;;9.93;5.40;;;;;;;;;;7645812;19;20461;-74
2023/12/13 15:33:56;;;;;;;10.45;6.13;;;;;;;;;;7648693;19;20030;-74
2023/12/13 15:36:29;;;;;;;8.63;4.90;;;;;;;;;;7647385;19;20014;-74
2023/12/13 15:39:04;;;;;;;9.27;5.10;;;;;;;;;;7654785;19;20038;-75
2023/12/13 15:41:38;;;;;;;10.30;5.00;;;;;;;;;;7639225;19;20002;-75
2023/12/13 15:44:12;;;;;;;11.82;5.03;;;;;;;;;;7655219;19;20014;-75
2023/12/13 15:46:45;;;;;;;15.48;5.55;;;;;;;;;;7654093;19;20614;-75
2023/12/13 15:49:18;;;;;;;9.10;5.20;;;;;;;;;;7658532;19;20754;-76
2023/12/13 15:51:51;;;;;;;8.57;4.60;;;;;;;;;;7660845;19;20042;-74
2023/12/13 15:54:24;;;;;;;11.38;4.90;;;;;;;;;;7619892;19;20015;-75
2023/12/13 15:57:00;;;;;;;13.20;4.55;;;;;;;;;;7627067;19;20042;-76
2023/12/13 15:59:33;;;;;;;13.00;4.95;;;;;;;;;;7625924;19;20349;-75
2023/12/13 16:02:06;;;;;;;11.80;4.68;;;;;;;;;;7628319;19;20959;-75
2023/12/13 16:04:39;;;;;;;6.35;4.63;;;;;;;;;;7627006;19;20047;-74
2023/12/13 16:07:14;;;;;;;9.57;5.47;;;;;;;;;;7627818;19;20059;-75
2023/12/13 16:09:48;;;;;;;7.30;4.88;;;;;;;;;;7629931;19;20014;-74
2023/12/13 16:12:21;;;;;;;10.23;5.35;;;;;;;;;;7624154;19;20014;-74
2023/12/13 16:14:54;;;;;;;10.05;6.85;;;;;;;;;;7639171;19;20018;-73
2023/12/13 16:17:28;;;;;;;8.90;5.55;;;;;;;;;;7637766;19;21555;-73
2023/12/13 16:20:01;;;;;;;15.70;6.28;;;;;;;;;;7642083;19;20460;-74
2023/12/13 16:22:35;;;;;;;8.52;5.25;;;;;;;;;;7612072;19;20010;-74
2023/12/13 16:25:08;;;;;;;15.90;6.13;;;;;;;;;;7621786;19;20018;-74
2023/12/13 16:27:41;;;;;;;7.80;5.25;;;;;;;;;;7608489;19;20011;-74
2023/12/13 16:30:15;;;;;;;12.95;5.60;;;;;;;;;;7604717;19;20716;-74
2023/12/13 16:32:48;;;;;;;11.13;5.53;;;;;;;;;;7607330;19;20030;-74
2023/12/13 16:35:21;;;;;;;12.05;6.32;;;;;;;;;;7605198;19;20007;-74
2023/12/13 16:37:54;;;;;;;12.20;6.18;;;;;;;;;;7608213;19;20014;-74
2023/12/13 16:40:27;;;;;;;17.33;7.10;;;;;;;;;;7603629;19;20106;-73
2023/12/13 16:43:00;;;;;;;11.20;6.20;;;;;;;;;;7603638;19;20011;-74
2023/12/13 16:45:32;;;;;;;12.57;6.53;;;;;;;;;;7597313;19;20288;-75
2023/12/13 16:48:05;;;;;;;13.40;6.47;;;;;;;;;;7602850;19;20844;-74
2023/12/13 16:50:38;;;;;;;11.50;6.70;;;;;;;;;;7605798;19;20044;-73
2023/12/13 16:53:11;;;;;;;14.63;7.23;;;;;;;;;;7606123;19;20014;-74
2023/12/13 16:55:44;;;;;;;10.60;7.33;;;;;;;;;;7601615;19;20295;-75
2023/12/13 16:58:20;;;;;;;15.10;8.13;;;;;;;;;;7608468;19;20263;-75
2023/12/13 17:00:53;;;;;;;14.50;8.60;;;;;;;;;;7597898;19;20011;-73
2023/12/13 17:03:26;;;;;;;10.93;7.35;;;;;;;;;;7593160;19;20025;-74
2023/12/13 17:05:59;;;;;;;14.03;7.47;;;;;;;;;;7590637;19;20011;-75
2023/12/13 17:08:31;;;;;;;14.60;7.85;;;;;;;;;;7587052;19;20021;-75
2023/12/13 17:11:04;;;;;;;13.10;8.00;;;;;;;;;;7597013;19;20903;-74
2023/12/13 17:13:38;;;;;;;18.90;11.43;;;;;;;;;;7599507;19;20369;-74
2023/12/13 17:16:11;;;;;;;24.23;14.70;;;;;;;;;;7593826;19;20021;-74
2023/12/13 17:18:44;;;;;;;13.27;8.57;;;;;;;;;;7587773;19;21157;-74
2023/12/13 17:21:17;;;;;;;16.52;10.40;;;;;;;;;;7587389;19;20022;-73
2023/12/13 17:23:49;;;;;;;42.53;26.10;;;7.30;99.90;;;;;;7589166;19;20014;-74
2023/12/13 17:26:22;;;;;;;33.97;21.67;;;7.20;99.90;;;;;;7595553;19;20519;-74
2023/12/13 17:28:55;;;;;;;16.45;10.88;;;7.20;99.90;;;;;;7591281;19;20918;-74
2023/12/13 17:31:27;;;;;;;18.55;11.70;;;7.20;99.90;;;;;;7592072;19;20255;-75
2023/12/13 17:33:59;;;;;;;20.80;10.90;;;7.10;99.90;;;;;;7599676;19;20826;-73
2023/12/13 17:36:32;;;;;;;13.88;8.70;;;7.20;99.90;;;;;;7590867;19;20097;-74
2023/12/13 17:39:05;;;;;;;16.05;9.00;;;7.20;99.90;;;;;;7594951;19;20018;-74
2023/12/13 17:41:39;;;;;;;16.95;10.75;;;7.20;99.90;;;;;;7588207;19;20097;-77
2023/12/13 17:44:12;;;;;;;24.45;14.73;;;7.20;99.90;;;;;;7606477;19;20018;-74
2023/12/13 17:46:44;;;;;;;30.02;16.80;;;7.10;99.90;;;;;;7597134;19;22625;-74
2023/12/13 17:49:18;;;;;;;28.58;16.52;;;7.10;99.90;;;;;;7599668;19;20019;-74
2023/12/13 17:51:51;;;;;;;23.25;12.75;;;7.00;99.90;;;;;;7591361;19;20014;-74
2023/12/13 17:54:23;;;;;;;20.83;12.20;;;7.00;99.90;;;;;;7596027;19;20014;-74
2023/12/13 17:56:56;;;;;;;18.65;12.20;;;7.00;99.90;;;;;;7591334;19;20026;-74
2023/12/13 17:59:28;;;;;;;17.05;11.07;;;6.90;99.90;;;;;;7591175;19;20014;-74
2023/12/13 18:02:02;;;;;;;17.70;12.32;;;7.00;99.90;;;;;;7582393;19;20052;-74
2023/12/13 18:04:34;;;;;;;17.85;11.98;;;7.00;99.90;;;;;;7586472;19;20011;-74
2023/12/13 18:07:07;;;;;;;16.33;11.50;;;6.90;99.90;;;;;;7591350;19;20509;-74
2023/12/13 18:09:39;;;;;;;20.55;12.50;;;6.90;99.90;;;;;;7597741;19;20022;-74
2023/12/13 18:12:12;;;;;;;17.10;10.10;;;6.90;99.90;;;;;;7600103;19;20026;-74
2023/12/13 18:14:44;;;;;;;19.77;10.30;;;6.90;99.90;;;;;;7596422;19;20339;-74
2023/12/13 18:17:17;;;;;;;17.95;10.38;;;7.00;99.90;;;;;;7598334;19;20104;-74
2023/12/13 18:19:50;;;;;;;15.70;10.05;;;7.00;99.90;;;;;;7592646;19;20018;-74
2023/12/13 18:22:23;;;;;;;14.55;9.93;;;7.00;99.90;;;;;;7596217;19;20647;-75
2023/12/13 18:24:56;;;;;;;14.40;9.68;;;7.00;99.90;;;;;;7594955;19;20018;-74
2023/12/13 18:27:28;;;;;;;16.45;11.20;;;6.90;99.90;;;;;;7598499;19;20014;-75
2023/12/13 18:30:00;;;;;;;18.20;11.57;;;6.90;99.90;;;;;;7597962;19;20037;-75
2023/12/13 18:32:33;;;;;;;20.27;12.85;;;6.90;99.90;;;;;;7596365;19;20019;-75
2023/12/13 18:35:07;;;;;;;17.45;11.27;;;6.80;99.90;;;;;;7588696;19;21128;-74
2023/12/13 18:37:40;;;;;;;19.50;10.63;;;6.80;99.90;;;;;;7592949;19;20014;-76
2023/12/13 18:40:13;;;;;;;18.50;10.27;;;;;;;;;;7592747;19;20014;-74
2023/12/13 18:42:46;;;;;;;21.25;12.13;;;7.00;99.90;;;;;;7581696;19;20294;-75
2023/12/13 18:45:19;;;;;;;18.83;13.48;;;7.20;99.90;;;;;;7585018;19;20079;-76
2023/12/13 18:47:51;;;;;;;18.85;12.38;;;7.00;99.90;;;;;;7577692;19;20007;-75
2023/12/13 18:50:24;;;;;;;20.08;13.10;;;6.90;99.90;;;;;;7585206;19;20367;-75
2023/12/13 18:52:56;;;;;;;18.13;11.32;;;6.90;99.90;;;;;;7581642;19;20676;-75
2023/12/13 18:55:29;;;;;;;18.52;10.52;;;6.90;99.90;;;;;;7574108;19;20582;-75
2023/12/13 18:58:01;;;;;;;17.02;10.63;;;6.80;99.90;;;;;;7562941;19;20045;-76
2023/12/13 19:00:33;;;;;;;19.90;10.38;;;6.80;99.90;;;;;;7549588;19;20045;-76
2023/12/13 19:03:05;;;;;;;20.58;11.88;;;6.80;99.90;;;;;;7559318;19;20011;-75
2023/12/13 19:05:38;;;;;;;13.85;8.57;;;6.70;99.90;;;;;;7549109;19;20044;-77
2023/12/13 19:08:11;;;;;;;14.13;8.10;;;;;;;;;;7526299;19;20829;-76
2023/12/13 19:10:43;;;;;;;11.47;7.03;;;;;;;;;;7532575;19;20563;-77
2023/12/13 19:13:16;;;;;;;9.98;6.05;;;;;;;;;;7521010;19;20011;-76
2023/12/13 19:15:49;;;;;;;8.13;4.57;;;;;;;;;;7527408;19;20048;-76
2023/12/13 19:18:31;;;;;;;8.56;4.45;;;;;;;;;;6954596;19;10000594;-76
2023/12/13 19:21:04;;;;;;;4.35;3.33;;;;;;;;;;7509476;19;20271;-76
2023/12/13 19:23:37;;;;;;;6.50;5.03;;;;;;;;;;7547680;19;20025;-77
2023/12/13 19:26:10;;;;;;;5.55;3.67;;;;;;;;;;7583314;19;20517;-76
2023/12/13 19:28:44;;;;;;;7.45;4.15;;;;;;;;;;7592465;19;20014;-76
2023/12/13 19:31:18;;;;;;;4.32;3.08;;;;;;;;;;7578075;19;20229;-76
2023/12/13 19:33:51;;;;;;;2.53;2.20;;;;;;;;;;7587045;19;20010;-76
2023/12/13 19:36:24;;;;;;;3.53;1.83;;;;;;;;;;7553079;19;20547;-73
2023/12/13 19:38:57;;;;;;;3.47;2.20;;;;;;;;;;7525742;19;20052;-75
2023/12/13 19:41:30;;;;;;;2.50;1.70;;;;;;;;;;7533343;19;20011;-75
2023/12/13 19:44:03;;;;;;;4.38;1.30;;;;;;;;;;7542796;19;20022;-76
2023/12/13 19:46:36;;;;;;;2.05;1.10;;;;;;;;;;7530194;19;20019;-77
2023/12/13 19:49:09;;;;;;;1.98;1.45;;;;;;;;;;7529869;19;20011;-77
2023/12/13 19:51:43;;;;;;;2.20;1.50;;;6.70;99.90;;;;;;7539050;19;20026;-77
2023/12/13 19:54:16;;;;;;;2.40;1.50;;;6.40;99.90;;;;;;7544019;19;24358;-77
2023/12/13 19:56:49;;;;;;;2.60;1.83;;;6.40;99.90;;;;;;7543442;19;20023;-77
2023/12/13 19:59:22;;;;;;;3.13;1.63;;;6.30;99.90;;;;;;7543072;19;20021;-77
2023/12/13 20:01:54;;;;;;;2.07;1.77;;;6.20;99.90;;;;;;7543556;19;20022;-76
2023/12/13 20:04:27;;;;;;;1.73;1.55;;;6.20;99.90;;;;;;7535868;19;20039;-77
2023/12/13 20:07:01;;;;;;;2.42;1.77;;;6.20;99.90;;;;;;7518975;19;20724;-74
2023/12/13 20:09:33;;;;;;;7.68;2.42;;;6.20;99.90;;;;;;7528231;19;20083;-76
2023/12/13 20:12:06;;;;;;;4.43;2.28;;;6.10;99.90;;;;;;7521174;19;21719;-75
2023/12/13 20:14:39;;;;;;;5.70;2.10;;;6.10;99.90;;;;;;7539705;19;20031;-73
2023/12/13 20:17:11;;;;;;;4.05;2.10;;;6.00;99.90;;;;;;7527201;19;25941;-77
2023/12/13 20:19:44;;;;;;;4.38;1.90;;;6.00;99.90;;;;;;7535675;19;22014;-75
2023/12/13 20:22:17;;;;;;;6.10;2.00;;;;;;;;;;7521396;19;20639;-76
2023/12/13 20:24:51;;;;;;;4.90;2.00;;;;;;;;;;7593291;19;20015;-75
2023/12/13 20:27:24;;;;;;;3.47;2.00;;;;;;;;;;7591741;19;20491;-75
2023/12/13 20:29:57;;;;;;;3.72;2.10;;;;;;;;;;7593253;19;20024;-76
2023/12/13 20:32:30;;;;;;;4.05;2.17;;;;;;;;;;7583264;19;21014;-75
2023/12/13 20:35:07;;;;;;;4.78;2.63;;;;;;;;;;7590974;19;21017;-75
2023/12/13 20:37:40;;;;;;;9.15;3.70;;;;;;;;;;7575256;19;20014;-76
2023/12/13 20:40:13;;;;;;;5.53;3.37;;;;;;;;;;7580603;19;20018;-77
2023/12/13 20:42:46;;;;;;;4.63;2.38;;;;;;;;;;7581879;19;20030;-77
2023/12/13 20:45:20;;;;;;;6.55;2.75;;;;;;;;;;7582490;19;20014;-77
2023/12/13 20:47:52;;;;;;;5.35;2.92;;;;;;;;;;7580129;19;20378;-74
2023/12/13 20:50:25;;;;;;;4.70;2.87;;;;;;;;;;7585075;19;20030;-76
2023/12/13 20:52:58;;;;;;;5.50;3.03;;;;;;;;;;7585795;19;20026;-76
2023/12/13 20:55:31;;;;;;;8.57;3.22;;;;;;;;;;7577871;19;20010;-77
2023/12/13 20:58:06;;;;;;;2.85;2.30;;;;;;;;;;7576225;19;20025;-77
2023/12/13 21:00:38;;;;;;;5.90;2.13;;;;;;;;;;7579442;19;20351;-77
2023/12/13 21:03:12;;;;;;;3.40;2.33;;;;;;;;;;7569293;19;20011;-76
2023/12/13 21:05:49;;;;;;;4.40;2.75;;;;;;;;;;7573377;19;20034;-75
2023/12/13 21:08:22;;;;;;;4.18;2.72;;;;;;;;;;7567912;19;20781;-76
2023/12/13 21:10:54;;;;;;;5.30;2.80;;;;;;;;;;7564992;19;20010;-76
2023/12/13 21:13:27;;;;;;;7.10;2.75;;;;;;;;;;7570847;19;20045;-76
